createdAt,value
2022-10-01T00:00:00.238Z,0
2022-10-01T00:05:00.168Z,0
2022-10-01T00:10:00.181Z,0
2022-10-01T00:15:04.263Z,0
2022-10-01T00:20:00.195Z,0
2022-10-01T00:25:00.172Z,0
2022-10-01T00:30:00.235Z,0
2022-10-01T00:35:00.178Z,0
2022-10-01T00:40:00.174Z,0
2022-10-01T00:45:00.197Z,0
2022-10-01T00:50:00.208Z,0
2022-10-01T00:55:00.170Z,0
2022-10-01T01:00:03.296Z,0
2022-10-01T01:05:00.165Z,0
2022-10-01T01:10:00.238Z,0
2022-10-01T01:15:00.176Z,0
2022-10-01T01:20:00.209Z,0
2022-10-01T01:25:00.178Z,0
2022-10-01T01:30:00.194Z,0
2022-10-01T01:35:00.166Z,0
2022-10-01T01:40:00.224Z,0
2022-10-01T01:45:00.183Z,0
2022-10-01T01:50:00.192Z,0
2022-10-01T01:55:00.175Z,0
2022-10-01T02:00:00.193Z,0
2022-10-01T02:05:00.169Z,0
2022-10-01T02:10:00.188Z,0
2022-10-01T02:15:00.182Z,0
2022-10-01T02:20:00.178Z,0
2022-10-01T02:25:00.170Z,0
2022-10-01T02:30:00.206Z,0
2022-10-01T02:35:00.183Z,0
2022-10-01T02:40:00.190Z,0
2022-10-01T02:45:00.145Z,0
2022-10-01T02:50:00.218Z,0
2022-10-01T02:55:00.182Z,0
2022-10-01T03:00:00.292Z,0
2022-10-01T03:05:00.178Z,0
2022-10-01T03:10:00.184Z,0
2022-10-01T03:15:00.181Z,0
2022-10-01T03:20:00.216Z,0
2022-10-01T03:25:00.196Z,0
2022-10-01T03:30:00.200Z,0
2022-10-01T03:35:00.201Z,0
2022-10-01T03:40:00.217Z,0
2022-10-01T03:45:00.210Z,0
2022-10-01T03:50:00.214Z,0
2022-10-01T03:55:00.195Z,0
2022-10-01T04:00:00.252Z,0
2022-10-01T04:05:00.223Z,0
2022-10-01T04:10:00.189Z,0
2022-10-01T04:15:00.182Z,0
2022-10-01T04:20:00.218Z,0
2022-10-01T04:25:00.231Z,0
2022-10-01T04:30:00.179Z,0
2022-10-01T04:35:00.215Z,0
2022-10-01T04:40:00.201Z,0
2022-10-01T04:45:00.186Z,0
2022-10-01T04:50:00.205Z,0
2022-10-01T04:55:00.196Z,0
2022-10-01T05:00:00.228Z,0
2022-10-01T05:05:00.156Z,0
2022-10-01T05:10:00.206Z,0
2022-10-01T05:15:00.192Z,0
2022-10-01T05:20:00.192Z,0
2022-10-01T05:25:00.223Z,0
2022-10-01T05:30:00.195Z,9
2022-10-01T05:35:00.189Z,14
2022-10-01T05:40:00.207Z,36
2022-10-01T05:45:00.277Z,85
2022-10-01T05:50:00.198Z,124
2022-10-01T05:55:00.199Z,141
2022-10-01T06:00:00.247Z,132
2022-10-01T06:05:00.191Z,112
2022-10-01T06:10:00.202Z,157
2022-10-01T06:15:00.200Z,395
2022-10-01T06:20:00.203Z,610
2022-10-01T06:25:00.194Z,1514
2022-10-01T06:30:00.268Z,2508
2022-10-01T06:35:00.212Z,1031
2022-10-01T06:40:00.197Z,1472
2022-10-01T06:45:00.217Z,2480
2022-10-01T06:50:00.209Z,3281
2022-10-01T06:55:00.214Z,4891
2022-10-01T07:00:00.243Z,2944
2022-10-01T07:05:00.202Z,3897
2022-10-01T07:10:00.202Z,3759
2022-10-01T07:15:00.203Z,5384
2022-10-01T07:20:00.195Z,3813
2022-10-01T07:25:00.194Z,5086
2022-10-01T07:30:00.205Z,3205
2022-10-01T07:35:00.199Z,3626
2022-10-01T07:40:03.050Z,5732
2022-10-01T07:45:00.224Z,3712
2022-10-01T07:50:00.212Z,3170
2022-10-01T07:55:00.204Z,3223
2022-10-01T08:00:00.238Z,21140
2022-10-01T08:05:00.244Z,4049
2022-10-01T08:10:00.254Z,2115
2022-10-01T08:15:00.210Z,2323
2022-10-01T08:20:00.235Z,3068
2022-10-01T08:25:00.264Z,6148
2022-10-01T08:30:00.248Z,27454
2022-10-01T08:35:00.272Z,65479
2022-10-01T08:40:00.242Z,61645
2022-10-01T08:45:00.627Z,58010
2022-10-01T08:50:00.254Z,60478
2022-10-01T08:55:00.216Z,47841
2022-10-01T09:00:00.251Z,4573
2022-10-01T09:05:01.788Z,3135
2022-10-01T09:10:00.289Z,2211
2022-10-01T09:15:00.211Z,2434
2022-10-01T09:20:00.293Z,18651
2022-10-01T09:25:00.246Z,17100
2022-10-01T09:30:00.252Z,4897
2022-10-01T09:35:04.257Z,50350
2022-10-01T09:40:00.226Z,3890
2022-10-01T09:45:00.246Z,9517
2022-10-01T09:50:00.276Z,4280
2022-10-01T09:55:00.718Z,46398
2022-10-01T10:00:00.241Z,14378
2022-10-01T10:05:00.249Z,5037
2022-10-01T10:10:00.242Z,4490
2022-10-01T10:15:00.253Z,8564
2022-10-01T10:20:00.225Z,8870
2022-10-01T10:25:00.217Z,8815
2022-10-01T10:30:00.197Z,7475
2022-10-01T10:35:03.194Z,3442
2022-10-01T10:40:00.204Z,3063
2022-10-01T10:45:00.191Z,2418
2022-10-01T10:50:00.221Z,26928
2022-10-01T10:55:00.279Z,15413
2022-10-01T11:00:00.317Z,26473
2022-10-01T11:05:00.209Z,26473
2022-10-01T11:10:00.198Z,23545
2022-10-01T11:15:00.217Z,20941
2022-10-01T11:20:00.915Z,17104
2022-10-01T11:25:00.182Z,17104
2022-10-01T11:30:00.228Z,15195
2022-10-01T11:35:00.218Z,6730
2022-10-01T11:40:00.193Z,8121
2022-10-01T11:45:00.965Z,7916
2022-10-01T11:50:00.241Z,7068
2022-10-01T11:55:00.316Z,9354
2022-10-01T12:00:00.288Z,7987
2022-10-01T12:05:00.217Z,7084
2022-10-01T12:15:04.234Z,7420
2022-10-01T12:20:00.286Z,5883
2022-10-01T12:25:00.193Z,7600
2022-10-01T12:35:00.237Z,6747
2022-10-01T12:40:00.204Z,6747
2022-10-01T12:45:00.210Z,6747
2022-10-01T12:50:00.302Z,7268
2022-10-01T12:55:00.208Z,4962
2022-10-01T13:00:00.390Z,3924
2022-10-01T13:05:00.190Z,5706
2022-10-01T13:10:00.251Z,5706
2022-10-01T13:15:00.254Z,5706
2022-10-01T13:20:00.209Z,6476
2022-10-01T13:25:00.192Z,6476
2022-10-01T13:30:00.294Z,6100
2022-10-01T13:35:00.215Z,5788
2022-10-01T13:40:00.216Z,2501
2022-10-01T13:45:00.213Z,2931
2022-10-01T13:50:00.263Z,2297
2022-10-01T13:55:00.224Z,2297
2022-10-01T14:00:00.278Z,2588
2022-10-01T14:05:00.213Z,4717
2022-10-01T14:10:00.223Z,2457
2022-10-01T14:15:00.212Z,3258
2022-10-01T14:20:00.246Z,2897
2022-10-01T14:25:00.246Z,2901
2022-10-01T14:30:00.212Z,3551
2022-10-01T14:35:00.214Z,3094
2022-10-01T14:40:00.219Z,3799
2022-10-01T14:45:00.224Z,5542
2022-10-01T14:50:00.191Z,3777
2022-10-01T14:55:00.225Z,2583
2022-10-01T15:00:00.336Z,2149
2022-10-01T15:05:00.360Z,1721
2022-10-01T15:10:00.200Z,3984
2022-10-01T15:15:00.209Z,4464
2022-10-01T15:20:00.227Z,3884
2022-10-01T15:25:00.176Z,3041
2022-10-01T15:30:00.365Z,3041
2022-10-01T15:35:00.256Z,2562
2022-10-01T15:40:00.315Z,2394
2022-10-01T15:45:00.203Z,2090
2022-10-01T15:50:00.347Z,2090
2022-10-01T15:55:00.297Z,2031
2022-10-01T16:00:00.222Z,2337
2022-10-01T16:05:00.193Z,1549
2022-10-01T16:10:00.241Z,1367
2022-10-01T16:15:00.203Z,1229
2022-10-01T16:20:00.211Z,1092
2022-10-01T16:25:00.189Z,971
2022-10-01T16:30:05.003Z,910
2022-10-01T16:35:00.192Z,765
2022-10-01T16:40:00.195Z,680
2022-10-01T16:45:00.185Z,537
2022-10-01T16:50:00.230Z,456
2022-10-01T16:55:00.220Z,387
2022-10-01T17:00:00.220Z,278
2022-10-01T17:05:00.218Z,236
2022-10-01T17:10:00.212Z,143
2022-10-01T17:15:00.220Z,121
2022-10-01T17:20:00.525Z,72
2022-10-01T17:25:00.210Z,37
2022-10-01T17:30:00.204Z,16
2022-10-01T17:35:00.192Z,9
2022-10-01T17:40:00.195Z,9
2022-10-01T17:45:00.192Z,2
2022-10-01T17:50:00.238Z,2
2022-10-01T17:55:00.212Z,2
2022-10-01T18:00:00.251Z,2
2022-10-01T18:05:00.220Z,2
2022-10-01T18:10:00.209Z,2
2022-10-01T18:15:00.197Z,2
2022-10-01T18:20:00.203Z,0
2022-10-01T18:25:00.170Z,0
2022-10-01T18:30:00.199Z,0
2022-10-01T18:35:00.209Z,0
2022-10-01T18:40:00.240Z,0
2022-10-01T18:45:00.192Z,0
2022-10-01T18:50:00.192Z,0
2022-10-01T18:55:00.198Z,0
2022-10-01T19:00:00.211Z,0
2022-10-01T19:05:00.179Z,0
2022-10-01T19:10:00.177Z,0
2022-10-01T19:15:00.204Z,0
2022-10-01T19:20:00.183Z,0
2022-10-01T19:25:00.179Z,0
2022-10-01T19:30:00.198Z,0
2022-10-01T19:35:00.183Z,0
2022-10-01T19:40:00.181Z,0
2022-10-01T19:45:00.159Z,0
2022-10-01T19:50:00.179Z,0
2022-10-01T19:55:00.173Z,0
2022-10-01T20:00:00.269Z,0
2022-10-01T20:05:00.162Z,0
2022-10-01T20:10:05.069Z,0
2022-10-01T20:15:00.205Z,0
2022-10-01T20:20:00.194Z,0
2022-10-01T20:25:00.175Z,0
2022-10-01T20:30:00.204Z,0
2022-10-01T20:35:00.176Z,0
2022-10-01T20:40:00.182Z,0
2022-10-01T20:45:00.200Z,0
2022-10-01T20:50:00.192Z,0
2022-10-01T20:55:00.191Z,0
2022-10-01T21:00:00.190Z,0
2022-10-01T21:05:00.185Z,0
2022-10-01T21:10:00.213Z,0
2022-10-01T21:15:00.178Z,0
2022-10-01T21:20:00.219Z,0
2022-10-01T21:25:00.172Z,0
2022-10-01T21:30:00.175Z,0
2022-10-01T21:35:00.181Z,0
2022-10-01T21:40:00.191Z,0
2022-10-01T21:45:00.188Z,0
2022-10-01T21:50:00.202Z,0
2022-10-01T21:55:00.190Z,0
2022-10-01T22:00:00.234Z,0
2022-10-01T22:05:00.188Z,0
2022-10-01T22:10:00.188Z,0
2022-10-01T22:15:00.149Z,0
2022-10-01T22:20:00.189Z,0
2022-10-01T22:25:00.187Z,0
2022-10-01T22:30:00.197Z,0
2022-10-01T22:35:00.162Z,0
2022-10-01T22:40:00.201Z,0
2022-10-01T22:45:00.152Z,0
2022-10-01T22:50:00.189Z,0
2022-10-01T22:55:00.172Z,0
2022-10-01T23:00:00.196Z,0
2022-10-01T23:05:00.175Z,0
2022-10-01T23:10:00.177Z,0
2022-10-01T23:15:00.181Z,0
2022-10-01T23:20:00.182Z,0
2022-10-01T23:25:00.179Z,0
2022-10-01T23:30:00.192Z,0
2022-10-01T23:35:00.177Z,0
2022-10-01T23:40:00.230Z,0
2022-10-01T23:45:00.204Z,0
2022-10-01T23:50:00.382Z,0
2022-10-01T23:55:00.161Z,0
